Time;durP1;ratioP1;P1;durP2;ratioP2;P2;SDS_P1;SDS_P2;PMS_P1;PMS_P2;Temp;Humidity;BMP_temperature;BMP_pressure;BME280_temperature;BME280_humidity;BME280_pressure;Samples;Min_cycle;Max_cycle;Signal;HPM_P1;HPM_P2
2023/02/08 00:00:23;;;;;;;34.53;17.87;;;;;;;-3.14;100.00;104244.59;5052979;28;20235;-65
2023/02/08 00:02:49;;;;;;;31.33;17.90;;;;;;;-3.17;100.00;104239.22;5057139;28;20447;-64
2023/02/08 00:05:15;;;;;;;28.97;17.53;;;;;;;-3.21;100.00;104230.44;5055253;28;20460;-64
2023/02/08 00:07:40;;;;;;;32.03;18.90;;;;;;;-3.23;100.00;104230.91;5041912;28;20436;-65
2023/02/08 00:10:06;;;;;;;30.30;17.57;;;;;;;-3.26;100.00;104228.91;5047824;28;21054;-64
2023/02/08 00:12:33;;;;;;;31.60;18.47;;;;;;;-3.29;100.00;104236.06;5043542;28;20188;-66
2023/02/08 00:14:59;;;;;;;29.13;17.53;;;;;;;-3.27;100.00;104233.75;5060115;28;20204;-65
2023/02/08 00:17:24;;;;;;;29.27;16.93;;;;;;;-3.29;100.00;104236.06;5052225;28;20452;-64
2023/02/08 00:19:50;;;;;;;28.43;17.67;;;;;;;-3.34;100.00;104227.03;5058502;28;20210;-68
2023/02/08 00:22:15;;;;;;;27.33;18.47;;;;;;;-3.34;100.00;104222.03;5051637;28;20219;-66
2023/02/08 00:24:41;;;;;;;33.03;18.53;;;;;;;-3.34;100.00;104227.03;5055844;28;20193;-65
2023/02/08 00:27:06;;;;;;;29.37;17.17;;;;;;;-3.39;100.00;104223.06;5055627;28;20193;-65
2023/02/08 00:29:32;;;;;;;34.00;18.40;;;;;;;-3.39;100.00;104220.56;5057749;28;20578;-65
2023/02/08 00:31:57;;;;;;;30.77;16.77;;;;;;;-3.36;100.00;104222.56;5062660;28;20574;-65
2023/02/08 00:34:23;;;;;;;31.13;17.33;;;;;;;-3.31;100.00;104219.91;5058259;28;20189;-65
2023/02/08 00:36:50;;;;;;;34.70;17.73;;;;;;;-3.27;100.00;104211.22;5037486;28;20224;-64
2023/02/08 00:39:15;;;;;;;30.90;17.83;;;;;;;-3.27;100.00;104208.69;5043059;28;20470;-65
2023/02/08 00:41:40;;;;;;;32.27;18.03;;;;;;;-3.32;100.00;104210.59;5060591;28;20209;-65
2023/02/08 00:44:06;;;;;;;36.03;18.17;;;;;;;-3.38;100.00;104212.31;5048086;28;20189;-63
2023/02/08 00:46:31;;;;;;;30.70;16.87;;;;;;;-3.41;100.00;104201.03;5051976;28;20578;-64
2023/02/08 00:48:57;;;;;;;37.10;18.97;;;;;;;-3.43;100.00;104202.41;5055031;28;20600;-66
2023/02/08 00:51:22;;;;;;;32.83;18.17;;;;;;;-3.44;100.00;104206.53;5038424;28;20193;-65
2023/02/08 00:53:48;;;;;;;35.43;19.50;;;;;;;-3.46;100.00;104195.41;5061125;28;20195;-65
2023/02/08 00:56:14;;;;;;;33.63;17.73;;;;;;;-3.47;100.00;104195.22;5030391;28;20337;-65
2023/02/08 00:58:41;;;;;;;34.13;18.80;;;;;;;-3.43;100.00;104194.91;5056095;28;20268;-65
2023/02/08 01:01:07;;;;;;;29.07;17.57;;;;;;;-3.50;100.00;104197.34;5036985;28;20475;-64
2023/02/08 01:03:34;;;;;;;33.97;18.47;;;;;;;-3.53;100.00;104192.84;5042471;28;20459;-64
2023/02/08 01:06:01;;;;;;;31.77;18.50;;;;;;;-3.56;100.00;104192.44;5055259;28;20463;-66
2023/02/08 01:08:27;;;;;;;32.50;18.73;;;;;;;-3.58;100.00;104198.84;5052125;28;20539;-65
2023/02/08 01:11:02;;;;;;;32.87;18.00;;;;;;;-3.59;100.00;104197.03;5041485;28;21121;-66
2023/02/08 01:13:27;;;;;;;35.00;18.13;;;;;;;-3.59;100.00;104192.03;5044037;28;20489;-65
2023/02/08 01:15:52;;;;;;;30.87;18.33;;;;;;;-3.61;100.00;104192.53;5062408;28;21045;-64
2023/02/08 01:18:18;;;;;;;34.70;18.53;;;;;;;-3.62;100.00;104194.16;5047504;28;20236;-65
2023/02/08 01:20:43;;;;;;;30.03;17.77;;;;;;;-3.63;100.00;104192.34;5042912;28;20284;-64
2023/02/08 01:23:09;;;;;;;33.00;17.83;;;;;;;-3.63;100.00;104191.47;5045332;28;20234;-66
2023/02/08 01:25:34;;;;;;;32.30;18.53;;;;;;;-3.65;100.00;104193.75;5053469;28;20229;-65
2023/02/08 01:28:00;;;;;;;34.63;17.53;;;;;;;-3.62;100.00;104186.66;5053441;28;20292;-65
2023/02/08 01:30:25;;;;;;;33.40;18.20;;;;;;;-3.63;100.00;104189.84;5032386;28;20193;-65
2023/02/08 01:32:50;;;;;;;32.07;18.27;;;;;;;-3.69;100.00;104191.56;5052429;28;20186;-65
2023/02/08 01:35:16;;;;;;;31.73;16.90;;;;;;;-3.69;100.00;104191.56;5053555;28;20249;-64
2023/02/08 01:37:41;;;;;;;31.17;17.47;;;;;;;-3.67;100.00;104196.78;5052562;28;21131;-65
2023/02/08 01:40:08;;;;;;;36.43;19.70;;;;;;;-3.57;100.00;104189.72;5033813;28;20216;-65
2023/02/08 01:42:34;;;;;;;36.50;19.27;;;;;;;-3.51;100.00;104186.41;5022681;28;20470;-65
2023/02/08 01:45:16;;;;;;;35.20;19.80;;;;;;;-3.48;100.00;104185.91;5053770;28;20546;-65
2023/02/08 01:47:44;;;;;;;36.17;19.90;;;;;;;-3.47;100.00;104182.69;5045080;28;20193;-64
2023/02/08 01:50:12;;;;;;;38.17;19.73;;;;;;;-3.39;100.00;104194.59;5041506;28;20530;-64
2023/02/08 01:52:42;;;;;;;33.57;19.03;;;;;;;-3.43;100.00;104193.31;5052499;28;21468;-65
2023/02/08 01:55:14;;;;;;;36.30;20.23;;;;;;;-3.42;100.00;104190.09;5048500;28;20464;-66
2023/02/08 01:57:40;;;;;;;42.33;21.77;;;;;;;-3.32;100.00;104183.06;5041685;28;20966;-66
2023/02/08 02:00:16;;;;;;;37.67;20.60;;;;;;;-3.21;100.00;104184.44;5046733;28;20457;-65
2023/02/08 02:02:44;;;;;;;39.50;21.40;;;;;;;-3.22;100.00;104187.66;5044295;28;20470;-65
2023/02/08 02:05:11;;;;;;;35.40;18.57;;;;;;;-3.29;100.00;104185.97;5056488;28;20470;-65
2023/02/08 02:07:37;;;;;;;36.70;19.37;;;;;;;-3.32;100.00;104188.06;5051675;28;20686;-62
2023/02/08 02:10:22;;;;;;;31.47;18.73;;;;;;;-3.38;100.00;104186.38;5041056;28;20460;-65
2023/02/08 02:12:49;;;;;;;32.03;18.83;;;;;;;-3.43;100.00;104188.31;5044577;28;20457;-65
2023/02/08 02:15:14;;;;;;;34.17;19.13;;;;;;;-3.44;100.00;104190.59;5024290;28;20478;-64
2023/02/08 02:17:40;;;;;;;33.10;18.50;;;;;;;-3.48;100.00;104190.91;5063979;28;20438;-65
2023/02/08 02:20:26;;;;;;;34.63;18.37;;;;;;;-3.46;100.00;104197.00;5036848;28;20240;-65
2023/02/08 02:23:07;;;;;;;32.47;18.70;;;;;;;-3.46;100.00;104192.00;5051957;28;20471;-65
2023/02/08 02:25:39;;;;;;;30.90;17.97;;;;;;;-3.48;100.00;104193.41;5059806;28;20487;-65
2023/02/08 02:28:38;;;;;;;32.20;18.63;;;;;;;-3.50;100.00;104187.34;5059256;28;20462;-65
2023/02/08 02:31:22;;;;;;;33.53;18.23;;;;;;;-3.46;100.00;104180.41;5057129;28;20447;-65
2023/02/08 02:33:54;;;;;;;33.60;18.77;;;;;;;-3.49;100.00;104176.59;5050697;28;20443;-65
2023/02/08 02:36:43;;;;;;;33.50;18.30;;;;;;;-3.54;100.00;104176.00;5037813;28;20471;-65
2023/02/08 02:39:39;;;;;;;40.80;20.00;;;;;;;-3.62;100.00;104179.16;5055876;28;20451;-65
2023/02/08 02:45:24;;;;;;;31.13;17.97;;;;;;;-3.71;100.00;104175.47;5057188;28;20518;-65
2023/02/08 02:48:02;;;;;;;35.10;18.77;;;;;;;-3.73;100.00;104170.97;5055806;28;20457;-65
2023/02/08 02:50:42;;;;;;;34.37;18.20;;;;;;;-3.74;100.00;104179.16;5061815;28;20948;-65
2023/02/08 02:53:16;;;;;;;30.67;17.77;;;;;;;-3.81;100.00;104169.06;5062021;28;20447;-65
2023/02/08 02:55:58;;;;;;;31.37;18.47;;;;;;;-3.78;100.00;104177.84;5061057;28;20545;-65
2023/02/08 02:58:25;;;;;;;32.13;18.17;;;;;;;-3.78;100.00;104180.34;5064489;28;20883;-65
2023/02/08 03:00:55;;;;;;;32.87;18.40;;;;;;;-3.80;100.00;104175.84;5039155;28;20471;-65
2023/02/08 03:03:24;;;;;;;35.40;18.13;;;;;;;-3.82;100.00;104180.66;5055659;28;21001;-65
2023/02/08 03:05:53;;;;;;;35.70;18.77;;;;;;;-3.86;100.00;104172.56;5041834;28;20796;-65
2023/02/08 03:08:49;;;;;;;35.33;19.30;;;;;;;-3.92;100.00;104174.28;5059133;28;20436;-64
2023/02/08 03:11:24;;;;;;;30.07;17.70;;;;;;;-3.93;100.00;104180.88;5039858;28;20447;-65
2023/02/08 03:14:11;;;;;;;28.67;17.10;;;;;;;-3.97;100.00;104181.19;5047388;28;20490;-65
2023/02/08 03:17:05;;;;;;;30.67;17.83;;;;;;;-4.02;100.00;104187.19;5056850;28;20464;-64
2023/02/08 03:19:46;;;;;;;34.60;18.03;;;;;;;-4.06;100.00;104182.47;5060642;28;20539;-65
2023/02/08 03:22:18;;;;;;;32.57;17.83;;;;;;;-4.09;100.00;104184.56;5056646;28;20865;-65
2023/02/08 03:25:16;;;;;;;34.07;19.37;;;;;;;-4.13;100.00;104186.50;5059268;28;20920;-65
2023/02/08 03:27:51;;;;;;;30.70;16.77;;;;;;;-4.17;100.00;104175.19;5048501;28;20465;-65
2023/02/08 03:30:50;;;;;;;32.33;17.70;;;;;;;-4.17;100.00;104181.78;5053881;28;20443;-65
2023/02/08 03:33:25;;;;;;;35.03;19.37;;;;;;;-4.17;100.00;104184.28;5033214;28;20448;-65
2023/02/08 03:36:03;;;;;;;31.83;17.30;;;;;;;-4.20;100.00;104192.28;5065348;28;20481;-65
2023/02/08 03:38:40;;;;;;;34.93;18.97;;;;;;;-4.24;100.00;104190.09;5064333;28;20546;-65
2023/02/08 03:41:09;;;;;;;35.90;19.20;;;;;;;-4.24;100.00;104186.69;5047705;28;20482;-65
2023/02/08 03:43:46;;;;;;;38.67;18.80;;;;;;;-4.26;100.00;104196.50;5057051;28;20454;-65
2023/02/08 03:46:21;;;;;;;33.27;18.00;;;;;;;-4.30;100.00;104198.38;5040904;28;20967;-65
2023/02/08 03:48:53;;;;;;;33.83;18.17;;;;;;;-4.31;100.00;104209.09;5062166;28;20453;-65
2023/02/08 03:51:21;;;;;;;34.10;17.23;;;;;;;-4.33;100.00;104206.38;5060876;28;20459;-65
2023/02/08 03:53:51;;;;;;;39.43;19.43;;;;;;;-4.39;100.00;104203.06;5054719;28;21007;-65
2023/02/08 03:56:21;;;;;;;32.57;17.73;;;;;;;-4.34;100.00;104204.59;5052859;28;20964;-65
2023/02/08 03:58:54;;;;;;;39.00;19.77;;;;;;;-4.36;100.00;104202.56;5057784;28;20451;-65
2023/02/08 04:01:28;;;;;;;35.87;18.37;;;;;;;-4.42;100.00;104205.16;5057347;28;20487;-65
2023/02/08 04:03:55;;;;;;;36.73;18.47;;;;;;;-4.44;100.00;104213.16;5054540;28;20454;-65
2023/02/08 04:06:22;;;;;;;36.93;19.17;;;;;;;-4.50;100.00;104213.28;5052430;28;20515;-65
2023/02/08 04:08:48;;;;;;;38.60;18.77;;;;;;;-4.48;100.00;104213.44;5033120;28;20444;-65
2023/02/08 04:11:13;;;;;;;34.03;17.17;;;;;;;-4.52;100.00;104216.25;5053261;28;20472;-65
2023/02/08 04:13:39;;;;;;;37.77;18.10;;;;;;;-4.53;100.00;104219.44;5061162;28;20499;-65
2023/02/08 04:16:04;;;;;;;38.17;19.33;;;;;;;-4.51;100.00;104223.06;5063648;28;20220;-65
2023/02/08 04:18:30;;;;;;;40.90;20.77;;;;;;;-4.52;100.00;104236.25;5062567;28;20216;-65
2023/02/08 04:20:55;;;;;;;42.00;20.10;;;;;;;-4.51;100.00;104228.06;5052236;28;20202;-65
2023/02/08 04:23:21;;;;;;;37.23;19.60;;;;;;;-4.52;100.00;104227.13;5056033;28;20670;-65
2023/02/08 04:25:46;;;;;;;34.43;18.60;;;;;;;-4.54;100.00;104230.13;5060452;28;20223;-65
2023/02/08 04:28:11;;;;;;;37.60;19.27;;;;;;;-4.57;100.00;104235.63;5063107;28;20195;-64
2023/02/08 04:30:37;;;;;;;38.20;19.30;;;;;;;-4.61;100.00;104232.53;5061717;28;20208;-65
2023/02/08 04:33:02;;;;;;;38.40;20.13;;;;;;;-4.61;100.00;104233.41;5048600;28;20194;-64
2023/02/08 04:35:28;;;;;;;40.83;19.87;;;;;;;-4.67;100.00;104219.19;5053494;28;20217;-65
2023/02/08 04:37:53;;;;;;;38.57;19.17;;;;;;;-4.63;100.00;104231.41;5057705;28;20197;-65
2023/02/08 04:40:19;;;;;;;36.70;18.43;;;;;;;-4.64;100.00;104235.53;5056047;28;20200;-65
2023/02/08 04:42:44;;;;;;;39.27;19.90;;;;;;;-4.66;100.00;104229.41;5063089;28;20564;-65
2023/02/08 04:45:10;;;;;;;37.30;19.40;;;;;;;-4.67;100.00;104230.09;5055683;28;20578;-65
2023/02/08 04:47:35;;;;;;;35.40;18.77;;;;;;;-4.68;100.00;104228.31;5039774;28;20199;-65
2023/02/08 04:50:01;;;;;;;36.37;19.63;;;;;;;-4.70;100.00;104224.69;5050210;28;20288;-65
2023/02/08 04:52:27;;;;;;;44.73;20.50;;;;;;;-4.70;100.00;104211.31;5040923;28;20734;-64
2023/02/08 04:54:52;;;;;;;39.37;20.37;;;;;;;-4.73;100.00;104210.91;5040839;28;20201;-64
2023/02/08 04:57:18;;;;;;;40.50;19.70;;;;;;;-4.73;100.00;104211.81;5057451;28;20239;-64
2023/02/08 04:59:43;;;;;;;40.43;21.33;;;;;;;-4.71;100.00;104210.41;5053204;28;20192;-65
2023/02/08 05:02:08;;;;;;;41.23;20.27;;;;;;;-4.67;100.00;104211.69;5053447;28;20217;-65
2023/02/08 05:04:34;;;;;;;40.27;20.67;;;;;;;-4.67;100.00;104210.13;5059059;28;20681;-65
2023/02/08 05:07:00;;;;;;;40.37;19.33;;;;;;;-4.70;100.00;104207.19;5044146;28;20221;-65
2023/02/08 05:09:26;;;;;;;38.57;19.43;;;;;;;-4.71;100.00;104207.00;5062417;28;20466;-65
2023/02/08 05:11:51;;;;;;;38.33;19.93;;;;;;;-4.61;100.00;104200.06;5055918;28;20186;-64
2023/02/08 05:14:17;;;;;;;39.73;20.43;;;;;;;-4.55;100.00;104186.72;5055682;28;20200;-65
2023/02/08 05:16:42;;;;;;;42.90;20.80;;;;;;;-4.52;100.00;104192.16;5058155;28;20297;-65
2023/02/08 05:19:10;;;;;;;46.77;22.37;;;;;;;-4.52;100.00;104188.78;5058268;28;20591;-65
2023/02/08 05:21:35;;;;;;;43.60;21.67;;;;;;;-4.52;100.00;104184.66;5043805;28;20253;-65
2023/02/08 05:24:01;;;;;;;40.47;21.17;;;;;;;-4.52;100.00;104186.28;5054131;28;20486;-64
2023/02/08 05:26:26;;;;;;;49.87;23.73;;;;;;;-4.46;100.00;104182.94;5064367;28;20218;-64
2023/02/08 05:28:52;;;;;;;53.47;27.33;;;;;;;-4.41;100.00;104178.56;5045407;28;20254;-65
2023/02/08 05:31:21;;;;;;;48.47;25.63;;;;;;;-4.38;100.00;104182.38;5059309;28;20188;-65
2023/02/08 05:33:51;;;;;;;47.07;23.13;;;;;;;-4.31;100.00;104185.00;5065181;28;20208;-64
2023/02/08 05:36:18;;;;;;;45.93;23.03;;;;;;;-4.30;100.00;104184.28;5063646;28;20475;-64
2023/02/08 05:38:43;;;;;;;47.90;25.20;;;;;;;-4.30;100.00;104183.38;5051097;28;20490;-65
2023/02/08 05:41:09;;;;;;;45.37;23.93;;;;;;;-4.29;100.00;104182.66;5063398;28;20513;-65
2023/02/08 05:43:35;;;;;;;45.77;22.60;;;;;;;-4.29;100.00;104187.66;5062764;28;20276;-65
2023/02/08 05:46:01;;;;;;;49.97;24.23;;;;;;;-4.28;100.00;104182.00;5062884;28;20216;-65
2023/02/08 05:48:27;;;;;;;45.93;23.67;;;;;;;-4.20;100.00;104184.78;5062899;28;20459;-64
2023/02/08 05:50:52;;;;;;;44.03;23.23;;;;;;;-4.21;100.00;104188.00;5045394;28;20204;-64
2023/02/08 05:53:19;;;;;;;51.47;23.70;;;;;;;-4.23;100.00;104189.38;5066353;28;20207;-64
2023/02/08 05:55:45;;;;;;;47.93;23.23;;;;;;;-4.23;100.00;104189.38;5063069;28;20254;-65
2023/02/08 05:58:11;;;;;;;42.93;22.37;;;;;;;-4.22;100.00;104183.69;5063979;28;20465;-65
2023/02/08 06:00:36;;;;;;;49.10;24.07;;;;;;;-4.19;100.00;104183.19;5059613;28;20440;-65
2023/02/08 06:03:02;;;;;;;51.17;24.47;;;;;;;-4.14;100.00;104185.56;5053044;28;20446;-64
2023/02/08 06:05:27;;;;;;;51.13;25.20;;;;;;;-4.15;100.00;104183.78;5064229;28;20259;-65
2023/02/08 06:07:53;;;;;;;45.43;23.47;;;;;;;-4.15;100.00;104185.41;5063189;28;20297;-65
2023/02/08 06:10:18;;;;;;;49.17;22.97;;;;;;;-4.17;100.00;104180.19;5063651;28;20239;-65
2023/02/08 06:12:44;;;;;;;45.67;23.37;;;;;;;-4.19;100.00;104183.19;5049196;28;20184;-65
2023/02/08 06:15:10;;;;;;;51.93;23.97;;;;;;;-4.18;100.00;104195.00;5065849;28;20215;-64
2023/02/08 06:17:35;;;;;;;50.33;24.90;;;;;;;-4.25;100.00;104197.38;5064654;28;20328;-65
2023/02/08 06:20:00;;;;;;;47.50;22.17;;;;;;;-4.28;100.00;104187.00;5067099;28;20254;-65
2023/02/08 06:22:26;;;;;;;46.13;22.67;;;;;;;-4.35;100.00;104190.28;5062578;28;20221;-64
2023/02/08 06:24:51;;;;;;;48.40;23.27;;;;;;;-4.39;100.00;104195.56;5066150;28;20555;-65
2023/02/08 06:27:17;;;;;;;48.00;22.63;;;;;;;-4.41;100.00;104193.56;5062911;28;20208;-65
2023/02/08 06:29:42;;;;;;;45.73;23.90;;;;;;;-4.46;100.00;104195.44;5065301;28;20193;-65
2023/02/08 06:32:08;;;;;;;46.67;22.53;;;;;;;-4.46;100.00;104194.56;5060031;28;20730;-65
2023/02/08 06:34:33;;;;;;;43.87;22.43;;;;;;;-4.52;100.00;104196.28;5061571;28;20193;-64
2023/02/08 06:37:01;;;;;;;47.17;23.03;;;;;;;-4.53;100.00;104204.44;5063137;28;20213;-65
2023/02/08 06:39:28;;;;;;;45.00;23.30;;;;;;;-4.55;100.00;104203.34;5060180;28;20255;-65
2023/02/08 06:41:54;;;;;;;47.33;24.23;;;;;;;-4.46;100.00;104199.56;5062297;28;20478;-65
2023/02/08 06:44:19;;;;;;;56.43;26.37;;;;;;;-4.44;100.00;104203.16;5065221;28;20451;-64
2023/02/08 06:46:44;;;;;;;48.53;24.03;;;;;;;-4.36;100.00;104205.06;5052704;28;20213;-65
2023/02/08 06:49:10;;;;;;;48.67;24.70;;;;;;;-4.34;100.00;104198.66;5041168;28;20213;-65
2023/02/08 06:51:36;;;;;;;50.80;25.53;;;;;;;-4.32;100.00;104193.16;5068836;28;20214;-65
2023/02/08 06:54:01;;;;;;;52.47;25.53;;;;;;;-4.26;100.00;104190.59;5069595;28;20197;-64
2023/02/08 06:56:27;;;;;;;53.13;25.70;;;;;;;-4.27;100.00;104204.72;5067416;28;20217;-65
2023/02/08 06:58:52;;;;;;;52.33;26.23;;;;;;;-4.26;100.00;104195.59;5065038;28;20199;-65
2023/02/08 07:01:17;;;;;;;51.20;25.83;;;;;;;-4.24;100.00;104195.09;5066190;28;20212;-66
2023/02/08 07:03:43;;;;;;;55.83;26.33;;;;;;;-4.24;100.00;104205.09;5067940;28;20187;-65
2023/02/08 07:06:13;;;;;;;54.47;25.83;;;;;;;-4.22;100.00;104196.19;5066755;28;20299;-65
2023/02/08 07:08:39;;;;;;;59.33;27.73;;;;;;;-4.21;100.00;104193.00;5058331;28;20190;-65
2023/02/08 07:11:13;;;;;;;57.90;27.87;;;;;;;-4.17;100.00;104195.19;5065316;28;20954;-65
2023/02/08 07:13:39;;;;;;;57.30;28.10;;;;;;;-4.14;100.00;104200.59;5066698;28;20326;-65
2023/02/08 07:16:06;;;;;;;60.43;27.47;;;;;;;-4.10;100.00;104206.91;5062128;28;20495;-65
2023/02/08 07:18:32;;;;;;;59.63;27.43;;;;;;;-4.02;100.00;104213.78;5061762;28;20197;-64
2023/02/08 07:20:58;;;;;;;58.30;26.47;;;;;;;-4.00;100.00;104209.91;5046040;28;20443;-64
2023/02/08 07:23:23;;;;;;;55.33;27.47;;;;;;;-4.02;100.00;104212.22;5061014;28;20240;-64
2023/02/08 07:25:59;;;;;;;60.60;27.60;;;;;;;-3.96;100.00;104205.50;5061883;28;20295;-64
2023/02/08 07:28:24;;;;;;;63.57;29.33;;;;;;;-3.90;100.00;104196.31;5056828;28;20202;-64
2023/02/08 07:30:50;;;;;;;60.03;28.53;;;;;;;-3.87;100.00;104190.78;5062467;28;20493;-64
2023/02/08 07:33:15;;;;;;;60.83;28.97;;;;;;;-3.82;100.00;104180.66;5058502;28;20205;-64
2023/02/08 07:35:41;;;;;;;65.07;29.67;;;;;;;-3.74;100.00;104181.66;5064561;28;20274;-64
2023/02/08 07:38:06;;;;;;;61.30;27.97;;;;;;;-3.70;100.00;104184.75;5069867;28;20188;-64
2023/02/08 07:40:32;;;;;;;65.30;29.23;;;;;;;-3.63;100.00;104179.81;5040151;28;20616;-64
2023/02/08 07:42:57;;;;;;;66.17;29.93;;;;;;;-3.58;100.00;104183.81;5046610;28;20255;-64
2023/02/08 07:45:37;;;;;;;69.70;30.07;;;;;;;-3.48;100.00;104175.91;5049282;28;20217;-65
2023/02/08 07:48:03;;;;;;;64.10;30.00;;;;;;;-3.43;100.00;104175.78;5066375;28;20439;-64
2023/02/08 07:50:28;;;;;;;70.27;31.20;;;;;;;-3.42;100.00;104164.16;5064124;28;20462;-65
2023/02/08 07:52:54;;;;;;;66.13;29.50;;;;;;;-3.35;100.00;104171.75;5066852;28;20196;-64
2023/02/08 07:55:19;;;;;;;71.70;31.80;;;;;;;-3.27;100.00;104182.03;5063969;28;20215;-64
2023/02/08 07:57:47;;;;;;;63.87;29.73;;;;;;;-3.21;100.00;104177.81;5061965;28;20197;-64
2023/02/08 08:00:14;;;;;;;67.40;30.53;;;;;;;-3.12;100.00;104176.44;5039821;28;20204;-65
2023/02/08 08:02:40;;;;;;;70.17;30.17;;;;;;;-2.98;100.00;104180.72;5052163;28;20481;-65
2023/02/08 08:05:06;;;;;;;73.93;31.87;;;;;;;-2.90;100.00;104183.47;5058798;28;20990;-65
2023/02/08 08:07:32;;;;;;;72.43;32.20;;;;;;;-2.80;100.00;104181.41;5055171;28;20204;-64
2023/02/08 08:09:58;;;;;;;69.30;30.87;;;;;;;-2.69;100.00;104183.69;5057255;28;20444;-64
2023/02/08 08:12:23;;;;;;;64.00;29.27;;;;;;;-2.58;100.00;104187.53;5058021;28;20219;-64
2023/02/08 08:14:49;;;;;;;68.27;30.37;;;;;;;-2.48;100.00;104180.44;5056834;28;20688;-64
2023/02/08 08:17:15;;;;;;;61.90;27.80;;;;;;;-2.41;100.00;104173.84;5056758;28;20197;-64
2023/02/08 08:19:41;;;;;;;62.23;30.03;;;;;;;-2.28;100.00;104181.28;5059569;28;20435;-64
2023/02/08 08:22:06;;;;;;;62.37;29.83;;;;;;;-2.30;100.00;104168.53;5057416;28;20840;-64
2023/02/08 08:24:34;;;;;;;61.27;28.67;;;;;;;-2.18;100.00;104174.19;5051800;28;20200;-64
2023/02/08 08:27:04;;;;;;;65.43;28.90;;;;;;;-2.13;100.00;104174.03;5058460;28;20214;-64
2023/02/08 08:29:34;;;;;;;64.70;29.93;;;;;;;-1.99;100.00;104179.13;5054134;28;20452;-64
2023/02/08 08:32:00;;;;;;;61.00;29.57;;;;;;;-1.93;100.00;104171.47;5037218;28;20437;-64
2023/02/08 08:34:29;;;;;;;56.03;27.20;;;;;;;-1.88;100.00;104165.38;5040068;28;20341;-64
2023/02/08 08:36:59;;;;;;;63.40;29.20;;;;;;;-1.75;100.00;104168.69;5050959;28;20462;-65
2023/02/08 08:39:26;;;;;;;61.20;29.13;;;;;;;-1.59;100.00;104170.72;5052560;28;20810;-64
2023/02/08 08:41:58;;;;;;;60.00;28.03;;;;;;;-1.53;100.00;104165.50;5056127;28;20259;-65
2023/02/08 08:44:23;;;;;;;59.43;27.50;;;;;;;-1.36;100.00;104158.41;5036827;28;20229;-65
2023/02/08 08:46:49;;;;;;;58.50;27.00;;;;;;;-1.24;100.00;104157.34;5021235;28;20748;-64
2023/02/08 08:49:15;;;;;;;66.97;28.77;;;;;;;-0.95;100.00;104160.09;5025144;28;20613;-64
2023/02/08 08:51:40;;;;;;;55.83;27.70;;;;;;;-0.75;100.00;104158.28;5026639;28;20190;-64
2023/02/08 08:54:06;;;;;;;54.33;27.27;;;;;;;-0.45;100.00;104166.00;5036804;28;20714;-64
2023/02/08 08:56:32;;;;;;;50.07;26.83;;;;;;;-0.17;100.00;104153.38;5012099;28;20706;-65
2023/02/08 08:58:58;;;;;;;55.33;28.70;;;;;;;0.03;100.00;104155.66;5041726;28;20281;-68
2023/02/08 09:01:24;;;;;;;51.83;25.77;;;;;;;0.08;100.00;104149.53;5035255;28;20274;-67
2023/02/08 09:03:49;;;;;;;48.60;24.83;;;;;;;0.73;100.00;104152.78;5056899;28;20607;-67
2023/02/08 09:06:15;;;;;;;43.50;24.47;;;;;;;1.42;100.00;104160.56;5051949;28;20832;-68
2023/02/08 09:08:41;;;;;;;44.23;26.33;;;;;;;2.08;100.00;104157.69;5050185;28;20204;-67
2023/02/08 09:11:12;;;;;;;43.67;25.27;;;;;;;3.72;100.00;104145.44;5042127;28;20722;-68
2023/02/08 09:13:38;;;;;;;42.87;25.27;;;;;;;6.44;83.21;104127.59;5059818;28;20205;-66
2023/02/08 09:16:05;;;;;;;45.23;25.77;;;;;;;7.29;68.94;104124.13;5039727;28;20217;-67
2023/02/08 09:18:31;;;;;;;45.17;25.83;;;;;;;7.97;62.12;104125.66;5053358;28;20194;-68
2023/02/08 09:20:56;;;;;;;42.53;25.43;;;;;;;9.44;54.34;104124.84;5038503;28;20277;-67
2023/02/08 09:23:22;;;;;;;41.33;25.80;;;;;;;9.92;51.32;104114.88;5048821;28;20193;-67
2023/02/08 09:25:47;;;;;;;42.73;26.13;;;;;;;8.54;52.39;104120.22;5051855;28;20227;-67
2023/02/08 09:28:12;;;;;;;39.20;24.27;;;;;;;9.28;50.79;104109.13;5052196;28;20616;-66
2023/02/08 09:30:38;;;;;;;42.57;25.73;;;;;;;9.85;47.65;104105.84;5032598;28;20262;-67
2023/02/08 09:33:03;;;;;;;39.90;25.33;;;;;;;11.14;44.60;104101.63;5052136;28;20230;-67
2023/02/08 09:35:29;;;;;;;42.87;26.57;;;;;;;11.75;42.17;104094.81;5039349;28;20217;-67
2023/02/08 09:37:56;;;;;;;43.67;26.43;;;;;;;11.00;42.93;104103.25;5052256;28;20246;-67
2023/02/08 09:40:31;;;;;;;43.00;26.47;;;;;;;10.21;43.68;104108.59;5054536;28;20206;-66
2023/02/08 09:43:17;;;;;;;40.93;25.73;;;;;;;12.50;40.34;104097.22;5059429;28;20696;-67
2023/02/08 09:46:10;;;;;;;38.87;25.57;;;;;;;12.78;39.25;104091.34;5050821;28;20701;-66
2023/02/08 09:48:38;;;;;;;42.50;25.53;;;;;;;13.35;37.18;104095.75;5052556;28;20249;-67
2023/02/08 09:51:34;;;;;;;43.60;27.00;;;;;;;15.52;35.21;104084.97;5049692;28;20197;-65
2023/02/08 09:54:18;;;;;;;41.07;25.00;;;;;;;16.02;34.56;104087.53;5051386;28;20198;-67
2023/02/08 09:56:46;;;;;;;40.80;25.63;;;;;;;15.63;34.23;104089.00;5051219;28;20244;-67
2023/02/08 09:59:21;;;;;;;40.40;25.97;;;;;;;17.33;32.42;104081.69;5046361;28;20823;-65
2023/02/08 10:01:50;;;;;;;40.40;25.50;;;;;;;16.45;32.75;104087.13;5056051;28;20299;-67
2023/02/08 10:04:27;;;;;;;41.47;26.30;;;;;;;16.95;32.16;104079.97;5056617;28;20223;-67
2023/02/08 10:06:52;;;;;;;40.90;26.30;;;;;;;17.60;30.61;104083.78;5043722;28;20271;-67
2023/02/08 10:09:24;;;;;;;38.83;26.57;;;;;;;17.41;31.24;104083.81;5049548;28;20638;-66
2023/02/08 10:12:21;;;;;;;36.37;25.30;;;;;;;18.32;30.23;104076.44;5038494;28;20201;-67
2023/02/08 10:14:52;;;;;;;38.23;24.93;;;;;;;18.01;30.12;104076.03;5052974;28;20651;-66
2023/02/08 10:17:33;;;;;;;39.27;24.90;;;;;;;17.36;29.72;104079.25;5027553;28;20561;-66
2023/02/08 10:20:11;;;;;;;39.60;27.03;;;;;;;18.62;29.40;104072.50;5055141;28;20209;-66
2023/02/08 10:23:04;;;;;;;41.97;25.97;;;;;;;17.94;29.18;104068.84;5055832;28;20277;-66
2023/02/08 10:25:44;;;;;;;40.43;26.60;;;;;;;17.10;30.09;104065.16;5060121;28;20279;-66
2023/02/08 10:28:24;;;;;;;41.43;26.20;;;;;;;19.46;28.61;104054.84;5057528;28;20205;-66
2023/02/08 10:31:08;;;;;;;39.27;25.70;;;;;;;19.60;28.54;104052.72;5033600;28;20193;-66
2023/02/08 10:34:06;;;;;;;35.80;25.60;;;;;;;18.59;28.17;104071.47;5057070;28;20185;-66
2023/02/08 10:36:40;;;;;;;38.50;26.20;;;;;;;20.72;26.91;104045.06;5052754;28;20225;-67
2023/02/08 10:39:15;;;;;;;37.10;24.97;;;;;;;20.11;26.91;104052.75;5064341;28;20196;-67
2023/02/08 10:41:42;;;;;;;41.37;26.63;;;;;;;20.10;27.19;104055.28;5058840;28;20205;-68
2023/02/08 10:44:22;;;;;;;38.90;26.67;;;;;;;18.96;28.30;104057.31;5058123;28;20220;-66
2023/02/08 10:47:06;;;;;;;38.43;25.73;;;;;;;19.79;27.83;104053.38;5057788;28;20274;-66
2023/02/08 10:49:43;;;;;;;36.20;24.93;;;;;;;19.24;27.04;104056.63;5056728;28;20197;-65
2023/02/08 10:52:09;;;;;;;36.77;25.87;;;;;;;19.82;27.25;104044.78;5058860;28;20177;-66
2023/02/08 10:54:34;;;;;;;36.00;24.73;;;;;;;20.87;26.42;104045.53;5062471;28;20254;-68
2023/02/08 10:57:05;;;;;;;34.97;24.43;;;;;;;20.81;26.38;104045.31;5051810;28;20208;-67
2023/02/08 10:59:48;;;;;;;37.87;24.67;;;;;;;16.85;28.91;104064.84;5035101;28;20295;-67
2023/02/08 11:02:24;;;;;;;38.10;23.87;;;;;;;13.38;35.21;104075.31;5057117;28;20285;-67
2023/02/08 11:04:58;;;;;;;35.60;24.10;;;;;;;12.30;38.88;104088.22;5059125;28;20268;-67
2023/02/08 11:07:23;;;;;;;39.60;24.60;;;;;;;11.00;41.39;104094.66;5045642;28;20541;-70
2023/02/08 11:09:49;;;;;;;39.47;23.83;;;;;;;12.26;42.45;104085.38;5060084;28;20204;-70
2023/02/08 11:12:19;;;;;;;37.17;23.07;;;;;;;12.73;42.35;104081.56;5052151;28;20196;-69
2023/02/08 11:14:49;;;;;;;38.97;22.57;;;;;;;11.92;40.91;104089.09;5056770;28;20193;-67
2023/02/08 11:17:28;;;;;;;36.17;22.03;;;;;;;11.67;40.08;104086.59;5049662;28;20283;-67